EGDY - Yeovilton
Distance from station: E 5mi, 14km
Updated: 10/17/2017 2:50pm
Light rain, Overcast
Light rain, Overcast
 Wind from N
Wind: N 5 mph , 7 km/h
Temperature: 50°F , 10°C
Wind Chill: 48°F , 9°C
Dew Point: 50°F , 10°C
Humidity: 100%
Barometer: 30 inHg , 1016 hPa
Summary: Light Rain
Clouds: Overcast
Visibility: 6 miles , 10 km
Cloud details: Overcast 4000 ft
2017/10/17 21:50 EGDY 172150Z 36004KT 9999 -RA OVC040 10/10 Q1016 BLU NOSIG